createdAt,value
2018-10-09T11:05:46.550Z,99.99
2018-10-09T11:06:46.519Z,99.99
2018-10-09T11:07:46.504Z,99.99
2018-10-09T11:08:46.495Z,99.99
2018-10-09T11:09:46.465Z,99.99
2018-10-09T11:10:46.448Z,99.99
2018-10-09T11:11:46.427Z,99.99
2018-10-09T11:12:46.416Z,99.99
2018-10-09T11:13:46.420Z,99.99
2018-10-09T11:14:55.697Z,99.49
2018-10-09T11:15:46.363Z,99.99
2018-10-09T11:16:46.346Z,99.59
2018-10-09T11:17:46.335Z,99.44
2018-10-09T11:18:46.332Z,99.88
2018-10-09T11:19:46.300Z,98.92
2018-10-09T11:20:46.289Z,99.99
2018-10-09T11:21:46.354Z,99.99
2018-10-09T11:22:46.260Z,99.99
2018-10-09T11:23:46.284Z,99.99
2018-10-09T11:24:46.230Z,98.63
2018-10-09T11:25:46.224Z,97.33
2018-10-09T11:26:46.204Z,97.14
2018-10-09T11:27:46.187Z,96.70
2018-10-09T11:28:46.174Z,96.89
2018-10-09T11:29:46.174Z,95.74
2018-10-09T11:30:46.146Z,94.01
2018-10-09T11:31:46.129Z,93.33
2018-10-09T11:32:46.120Z,94.01
2018-10-09T11:33:46.119Z,94.68
2018-10-09T11:34:46.111Z,94.01
2018-10-09T11:35:46.079Z,97.19
2018-10-09T11:36:46.064Z,96.42
2018-10-09T11:37:46.050Z,98.24
2018-10-09T11:38:46.035Z,97.14
2018-10-09T11:39:46.056Z,94.44
2018-10-09T11:40:46.009Z,93.62
2018-10-09T11:41:46.061Z,94.10
2018-10-09T11:42:46.035Z,93.52
2018-10-09T11:43:45.965Z,93.72
2018-10-09T11:44:45.958Z,97.28
2018-10-09T11:45:45.958Z,94.01
2018-10-09T11:46:45.926Z,92.32
2018-10-09T11:47:45.918Z,92.03
2018-10-09T11:48:45.897Z,91.45
2018-10-09T11:49:45.885Z,91.83
2018-10-09T11:50:45.895Z,90.05
2018-10-09T11:51:45.861Z,91.40
2018-10-09T11:52:45.846Z,89.67
2018-10-09T11:53:45.836Z,87.93
2018-10-09T11:54:45.823Z,86.68
2018-10-09T11:55:45.826Z,87.93
2018-10-09T11:56:45.797Z,87.74
2018-10-09T11:57:45.782Z,87.64
2018-10-09T11:58:45.806Z,86.96
2018-10-09T11:59:45.759Z,87.60
2018-10-09T12:00:45.758Z,87.40
2018-10-09T12:01:45.732Z,87.06
2018-10-09T12:02:45.771Z,87.79
2018-10-09T12:03:45.706Z,88.89
2018-10-09T12:04:45.695Z,90.53
2018-10-09T12:05:45.760Z,88.51
2018-10-09T12:06:45.674Z,87.59
2018-10-09T12:07:45.653Z,86.62
2018-10-09T12:08:45.657Z,84.44
2018-10-09T12:09:45.668Z,84.44
2018-10-09T12:10:45.636Z,83.91
2018-10-09T12:11:45.630Z,82.94
2018-10-09T12:12:45.594Z,82.42
2018-10-09T12:13:45.592Z,82.96
2018-10-09T12:14:45.569Z,83.73
2018-10-09T12:15:45.568Z,85.75
2018-10-09T12:16:45.588Z,84.31
2018-10-09T12:17:45.533Z,85.37
2018-10-09T12:18:45.522Z,87.26
2018-10-09T12:19:45.506Z,87.54
2018-10-09T12:20:45.491Z,86.52
2018-10-09T12:21:45.481Z,86.87
2018-10-09T12:22:45.485Z,86.29
2018-10-09T12:23:45.453Z,86.68
2018-10-09T12:24:45.443Z,86.48
2018-10-09T12:25:45.431Z,85.94
2018-10-09T12:26:45.423Z,85.94
2018-10-09T12:27:45.425Z,84.16
2018-10-09T12:28:45.393Z,81.59
2018-10-09T12:29:45.380Z,81.59
2018-10-09T12:30:45.612Z,80.72
2018-10-09T12:31:45.381Z,81.59
2018-10-09T12:32:45.427Z,80.53
2018-10-09T12:33:45.335Z,80.43
2018-10-09T12:34:45.318Z,81.68
2018-10-09T12:35:45.308Z,81.40
2018-10-09T12:36:45.298Z,82.42
2018-10-09T12:37:45.302Z,83.58
2018-10-09T12:38:45.273Z,83.73
2018-10-09T12:39:45.257Z,85.17
2018-10-09T12:40:45.244Z,85.61
2018-10-09T12:41:46.311Z,86.00
2018-10-09T12:42:45.219Z,86.29
2018-10-09T12:43:45.238Z,88.89
2018-10-09T12:44:45.194Z,88.08
2018-10-09T12:45:45.185Z,87.79
2018-10-09T12:46:45.172Z,87.70
2018-10-09T12:47:45.158Z,89.72
2018-10-09T12:48:45.166Z,88.37
2018-10-09T12:49:45.132Z,87.54
2018-10-09T12:50:45.129Z,85.56
2018-10-09T12:51:45.122Z,83.62
2018-10-09T12:52:45.100Z,81.88
2018-10-09T12:53:45.102Z,82.50
2018-10-09T12:54:45.069Z,80.28
2018-10-09T12:55:45.054Z,80.46
2018-10-09T12:56:45.042Z,78.27
2018-10-09T12:57:45.029Z,76.28
2018-10-09T12:58:45.050Z,75.15
2018-10-09T12:59:45.015Z,74.60
2018-10-09T13:00:45.113Z,70.99
2018-10-09T13:01:45.004Z,69.34
2018-10-09T13:02:45.018Z,67.34
2018-10-09T13:03:45.037Z,67.66
2018-10-09T13:04:45.019Z,64.40
2018-10-09T13:05:44.986Z,65.11
2018-10-09T13:06:44.968Z,66.99
2018-10-09T13:07:44.910Z,65.89
2018-10-09T13:08:44.894Z,65.63
2018-10-09T13:09:44.919Z,63.03
2018-10-09T13:10:44.873Z,62.57
2018-10-09T13:11:44.862Z,62.74
2018-10-09T13:12:44.849Z,62.35
2018-10-09T13:13:44.840Z,61.80
2018-10-09T13:14:44.828Z,61.96
2018-10-09T13:15:44.838Z,61.11
2018-10-09T13:16:44.811Z,60.24
2018-10-09T13:17:44.871Z,61.38
2018-10-09T13:18:44.789Z,60.41
2018-10-09T13:19:44.776Z,60.60
2018-10-09T13:20:44.817Z,60.21
2018-10-09T13:21:44.795Z,61.90
2018-10-09T13:22:44.763Z,61.71
2018-10-09T13:23:44.738Z,61.77
2018-10-09T13:24:44.726Z,62.91
2018-10-09T13:25:44.735Z,63.42
2018-10-09T13:26:44.709Z,62.38
2018-10-09T13:27:44.698Z,61.74
2018-10-09T13:28:44.688Z,62.62
2018-10-09T13:29:44.680Z,63.59
2018-10-09T13:30:44.732Z,63.39
2018-10-09T13:31:44.665Z,64.82
2018-10-09T13:32:44.657Z,65.27
2018-10-09T13:33:44.646Z,65.37
2018-10-09T13:34:44.640Z,65.24
2018-10-09T13:35:44.623Z,67.76
2018-10-09T13:36:44.636Z,66.56
2018-10-09T13:37:44.609Z,67.57
2018-10-09T13:38:44.589Z,67.66
2018-10-09T13:39:44.583Z,67.47
2018-10-09T13:40:44.576Z,67.37
2018-10-09T13:41:44.574Z,65.72
2018-10-09T13:42:44.553Z,65.08
2018-10-09T13:43:44.541Z,65.30
2018-10-09T13:44:44.535Z,65.40
2018-10-09T13:45:44.530Z,64.65
2018-10-09T13:46:44.528Z,63.81
2018-10-09T13:47:44.551Z,62.84
2018-10-09T13:48:44.502Z,63.07
2018-10-09T13:49:44.490Z,59.92
2018-10-09T13:50:44.548Z,59.85
2018-10-09T13:51:44.490Z,57.42
2018-10-09T13:52:44.468Z,57.45
2018-10-09T13:53:44.463Z,56.79
2018-10-09T13:54:44.450Z,55.46
2018-10-09T13:55:44.443Z,56.07
2018-10-09T13:56:44.459Z,55.55
2018-10-09T13:57:44.424Z,55.46
2018-10-09T13:58:44.411Z,54.90
2018-10-09T13:59:44.406Z,54.58
2018-10-09T14:00:44.399Z,54.52
2018-10-09T14:01:44.416Z,56.45
2018-10-09T14:02:44.390Z,57.75
2018-10-09T14:03:44.379Z,59.80
2018-10-09T14:04:44.368Z,59.28
2018-10-09T14:05:44.364Z,58.69
2018-10-09T14:06:44.376Z,59.15
2018-10-09T14:07:44.345Z,59.70
2018-10-09T14:08:44.337Z,59.90
2018-10-09T14:09:44.332Z,59.54
2018-10-09T14:10:44.317Z,58.34
2018-10-09T14:11:44.313Z,59.25
2018-10-09T14:12:44.319Z,60.25
2018-10-09T14:13:44.296Z,58.89
2018-10-09T14:14:44.289Z,57.17
2018-10-09T14:15:44.283Z,56.41
2018-10-09T14:16:44.281Z,56.51
2018-10-09T14:17:44.293Z,55.76
2018-10-09T14:18:44.259Z,55.83
2018-10-09T14:19:44.249Z,55.44
2018-10-09T14:20:44.242Z,55.57
2018-10-09T14:21:44.234Z,54.52
2018-10-09T14:22:47.826Z,53.87
2018-10-09T14:23:44.221Z,53.87
2018-10-09T14:24:44.211Z,53.19
2018-10-09T14:25:44.207Z,53.67
2018-10-09T14:26:44.201Z,53.06
2018-10-09T14:27:44.190Z,54.40
2018-10-09T14:28:44.203Z,54.47
2018-10-09T14:29:44.179Z,56.85
2018-10-09T14:30:44.168Z,57.47
2018-10-09T14:31:44.162Z,59.16
2018-10-09T14:32:44.159Z,60.55
2018-10-09T14:33:44.161Z,61.98
2018-10-09T14:34:44.168Z,62.34
2018-10-09T14:35:44.130Z,63.21
2018-10-09T14:36:44.122Z,63.11
2018-10-09T14:37:44.115Z,63.85
2018-10-09T14:38:44.147Z,65.88
2018-10-09T14:39:44.097Z,66.14
2018-10-09T14:40:44.090Z,67.01
2018-10-09T14:41:44.099Z,66.72
2018-10-09T14:42:44.075Z,68.33
2018-10-09T14:43:44.065Z,68.72
2018-10-09T14:44:44.072Z,68.72
2018-10-09T14:45:44.056Z,68.62
2018-10-09T14:46:44.036Z,68.43
2018-10-09T14:47:44.030Z,68.52
2018-10-09T14:48:44.023Z,69.01
2018-10-09T14:49:44.022Z,69.49
2018-10-09T14:50:44.002Z,70.07
2018-10-09T14:51:43.993Z,69.33
2018-10-09T14:52:43.984Z,68.95
2018-10-09T14:53:43.970Z,68.66
2018-10-09T14:54:43.979Z,68.59
2018-10-09T14:55:43.949Z,68.85
2018-10-09T14:56:43.939Z,69.24
2018-10-09T14:57:43.929Z,68.95
2018-10-09T14:58:43.938Z,68.85
2018-10-09T14:59:43.927Z,68.46
2018-10-09T15:00:43.905Z,69.72
2018-10-09T15:01:43.892Z,68.59
2018-10-09T15:02:43.882Z,68.95
2018-10-09T15:03:43.870Z,68.46
2018-10-09T15:04:43.864Z,68.85
2018-10-09T15:05:43.864Z,68.46
2018-10-09T15:06:43.843Z,67.88
2018-10-09T15:07:43.829Z,68.85
2018-10-09T15:08:43.819Z,68.33
2018-10-09T15:09:43.851Z,68.82
2018-10-09T15:10:43.798Z,68.52
2018-10-09T15:11:43.792Z,68.62
2018-10-09T15:12:43.776Z,69.20
2018-10-09T15:13:43.779Z,69.01
2018-10-09T15:14:43.774Z,69.59
2018-10-09T15:15:43.745Z,69.30
2018-10-09T15:16:43.771Z,69.10
2018-10-09T15:17:43.726Z,69.49
2018-10-09T15:18:43.717Z,70.26
2018-10-09T15:19:43.723Z,69.68
2018-10-09T15:20:43.694Z,70.26
2018-10-09T15:21:43.684Z,70.14
2018-10-09T15:22:43.672Z,70.23
2018-10-09T15:23:43.660Z,70.23
2018-10-09T15:24:43.676Z,70.04
2018-10-09T15:25:43.915Z,70.52
2018-10-09T15:26:43.629Z,70.62
2018-10-09T15:27:43.619Z,70.62
2018-10-09T15:28:43.606Z,71.58
2018-10-09T15:29:43.600Z,71.20
2018-10-09T15:30:43.595Z,71.48
2018-10-09T15:31:43.576Z,70.48
2018-10-09T15:32:43.564Z,71.45
2018-10-09T15:33:43.551Z,71.74
2018-10-09T15:34:43.554Z,71.74
2018-10-09T15:35:43.534Z,72.03
2018-10-09T15:36:43.517Z,72.61
2018-10-09T15:37:43.503Z,73.67
2018-10-09T15:38:43.500Z,73.15
2018-10-09T15:39:43.510Z,73.06
2018-10-09T15:40:43.474Z,73.15
2018-10-09T15:41:43.491Z,72.77
2018-10-09T15:42:43.449Z,73.25
2018-10-09T15:43:43.437Z,72.96
2018-10-09T15:44:43.424Z,73.15
2018-10-09T15:45:43.431Z,73.41
2018-10-09T15:46:43.407Z,73.11
2018-10-09T15:47:43.391Z,73.89
2018-10-09T15:48:43.381Z,74.18
2018-10-09T15:49:43.382Z,74.18
2018-10-09T15:50:43.360Z,73.99
2018-10-09T15:51:43.344Z,74.47
2018-10-09T15:52:43.364Z,74.76
2018-10-09T15:53:43.321Z,74.85
2018-10-09T15:54:43.326Z,74.72
2018-10-09T15:55:43.302Z,75.97
2018-10-09T15:56:43.400Z,75.88
2018-10-09T15:57:43.295Z,76.26
2018-10-09T15:58:43.263Z,76.26
2018-10-09T15:59:43.253Z,76.42
2018-10-09T16:00:43.252Z,77.03
2018-10-09T16:01:43.231Z,77.38
2018-10-09T16:02:43.227Z,78.15
2018-10-09T16:03:43.213Z,78.44
2018-10-09T16:04:43.189Z,78.54
2018-10-09T16:05:43.208Z,80.08
2018-10-09T16:06:43.171Z,80.18
2018-10-09T16:07:43.149Z,80.71
2018-10-09T16:08:43.142Z,81.77
2018-10-09T16:09:43.130Z,81.10
2018-10-09T16:10:43.128Z,82.35
2018-10-09T16:11:43.102Z,82.54
2018-10-09T16:12:43.089Z,82.35
2018-10-09T16:13:43.074Z,83.03
2018-10-09T16:14:43.062Z,82.93
2018-10-09T16:15:43.051Z,83.47
2018-10-09T16:16:43.054Z,84.05
2018-10-09T16:17:43.022Z,84.81
2018-10-09T16:18:43.014Z,85.97
2018-10-09T16:19:43.004Z,87.51
2018-10-09T16:20:43.023Z,86.41
2018-10-09T16:21:42.983Z,87.66
2018-10-09T16:22:42.962Z,88.81
2018-10-09T16:23:42.945Z,88.71
2018-10-09T16:24:42.935Z,89.01
2018-10-09T16:25:42.923Z,89.39
2018-10-09T16:26:42.919Z,89.68
2018-10-09T16:27:42.900Z,90.89
2018-10-09T16:28:42.882Z,90.93
2018-10-09T16:29:42.867Z,91.27
2018-10-09T16:30:42.855Z,90.59
2018-10-09T16:31:42.876Z,91.85
2018-10-09T16:32:43.191Z,92.13
2018-10-09T16:33:42.817Z,92.81
2018-10-09T16:34:42.829Z,93.58
2018-10-09T16:35:42.813Z,94.73
2018-10-09T16:36:42.791Z,95.94
2018-10-09T16:37:42.844Z,96.90
2018-10-09T16:38:42.798Z,98.63
2018-10-09T16:39:42.830Z,98.63
2018-10-09T16:40:42.747Z,99.99
2018-10-09T16:41:42.719Z,99.99
2018-10-09T16:42:42.702Z,99.99
2018-10-09T16:43:42.676Z,99.99
2018-10-09T16:44:42.678Z,99.99
2018-10-09T16:45:42.648Z,99.99
2018-10-09T16:46:42.632Z,99.99
2018-10-09T16:47:42.639Z,99.99
2018-10-09T16:48:42.604Z,99.99
2018-10-09T16:49:42.590Z,99.99
2018-10-09T16:50:42.576Z,99.99
2018-10-09T16:51:42.566Z,99.99
2018-10-09T16:52:42.549Z,99.99
2018-10-09T16:53:42.553Z,99.99
2018-10-09T16:54:42.518Z,99.99
2018-10-09T16:55:42.507Z,99.99
2018-10-09T16:56:42.489Z,99.99
2018-10-09T16:57:42.480Z,99.99
2018-10-09T16:58:42.482Z,99.99
2018-10-09T16:59:42.445Z,99.99
2018-10-09T17:00:42.439Z,99.99
2018-10-09T17:01:42.420Z,99.99
2018-10-09T17:02:42.401Z,99.99
2018-10-09T17:03:42.409Z,99.99
2018-10-09T17:04:42.382Z,99.99
2018-10-09T17:05:42.359Z,99.99
2018-10-09T17:06:42.360Z,99.99
2018-10-09T17:07:42.333Z,99.99
2018-10-09T17:08:42.315Z,99.99
2018-10-09T17:09:42.314Z,99.99
2018-10-09T17:10:42.289Z,99.99
2018-10-09T17:11:42.272Z,99.99
2018-10-09T17:12:42.258Z,99.99
2018-10-09T17:13:42.257Z,99.99
2018-10-09T17:14:42.228Z,99.99
2018-10-09T17:15:42.306Z,99.99
2018-10-09T17:16:42.211Z,99.99
2018-10-09T17:17:42.200Z,99.99
2018-10-09T17:18:42.230Z,99.99
2018-10-09T17:19:42.171Z,99.99
2018-10-09T17:20:42.187Z,99.99
2018-10-09T17:21:42.124Z,99.99
2018-10-09T17:22:42.118Z,99.99
2018-10-09T17:23:42.142Z,99.99
2018-10-09T17:24:42.073Z,99.99
2018-10-09T17:25:42.074Z,99.99
2018-10-09T17:26:42.084Z,99.99
2018-10-09T17:27:42.051Z,99.99
2018-10-09T17:28:42.050Z,99.99
2018-10-09T17:29:42.055Z,99.99
2018-10-09T17:30:41.997Z,99.99
2018-10-09T17:31:41.973Z,99.99
2018-10-09T17:32:41.952Z,99.99
2018-10-09T17:33:42.039Z,99.99
2018-10-09T17:34:41.936Z,99.99
2018-10-09T17:35:41.952Z,99.99
2018-10-09T17:36:41.895Z,99.99
2018-10-09T17:37:41.933Z,99.99
2018-10-09T17:38:41.879Z,99.99
2018-10-09T17:39:41.904Z,99.99
2018-10-09T17:40:41.849Z,99.99
2018-10-09T17:41:41.840Z,99.99
2018-10-09T17:42:41.842Z,99.99
2018-10-09T17:43:41.813Z,99.99
2018-10-09T17:44:41.808Z,99.99
2018-10-09T17:45:41.795Z,99.99
2018-10-09T17:46:41.795Z,99.99
2018-10-09T17:47:41.723Z,99.99
2018-10-09T17:48:41.788Z,99.99
2018-10-09T17:49:41.695Z,99.99
2018-10-09T17:50:41.695Z,99.99
2018-10-09T17:51:41.665Z,99.99
2018-10-09T17:52:41.645Z,99.99
2018-10-09T17:53:41.655Z,99.99
2018-10-09T17:54:41.629Z,99.99
2018-10-09T17:55:41.623Z,99.99
2018-10-09T17:56:41.589Z,99.99
2018-10-09T17:57:41.604Z,99.99
2018-10-09T17:58:41.556Z,99.99
2018-10-09T17:59:41.548Z,99.99
2018-10-09T18:00:41.530Z,99.99
2018-10-09T18:01:41.525Z,99.99
2018-10-09T18:02:41.499Z,99.99
2018-10-09T18:03:41.470Z,99.99
2018-10-09T18:04:41.453Z,99.99
2018-10-09T18:05:41.441Z,99.99
2018-10-09T18:06:41.436Z,99.99
2018-10-09T18:07:41.410Z,99.99
2018-10-09T18:08:41.466Z,99.99
2018-10-09T18:09:41.386Z,99.99
2018-10-09T18:10:41.364Z,99.99
2018-10-09T18:11:41.353Z,99.99
2018-10-09T18:12:41.331Z,99.99
2018-10-09T18:13:41.312Z,99.99
2018-10-09T18:14:41.392Z,99.99
2018-10-09T18:15:41.287Z,99.99
2018-10-09T18:16:41.282Z,99.99
2018-10-09T18:17:41.250Z,99.99
2018-10-09T18:18:41.247Z,99.99
2018-10-09T18:19:41.212Z,99.99
2018-10-09T18:20:41.207Z,99.99
2018-10-09T18:21:41.197Z,99.99
2018-10-09T18:22:41.196Z,99.99
2018-10-09T18:23:41.156Z,99.99
2018-10-09T18:24:41.141Z,99.99
2018-10-09T18:25:41.128Z,99.99
2018-10-09T18:26:41.109Z,99.99
2018-10-09T18:27:41.109Z,99.99
2018-10-09T18:28:41.072Z,99.99
2018-10-09T18:29:41.053Z,99.99
2018-10-09T18:30:41.047Z,99.99
2018-10-09T18:31:41.042Z,99.99
2018-10-09T18:32:41.174Z,99.99
2018-10-09T18:33:40.980Z,99.99
2018-10-09T18:34:40.973Z,99.99
2018-10-09T18:35:40.953Z,99.99
2018-10-09T18:36:40.939Z,99.99
2018-10-09T18:37:40.946Z,99.99
2018-10-09T18:38:40.901Z,99.99
2018-10-09T18:39:40.887Z,99.99
2018-10-09T18:40:40.891Z,99.99
2018-10-09T18:41:40.988Z,99.99
2018-10-09T18:42:40.857Z,99.99
2018-10-09T18:43:40.827Z,99.99
2018-10-09T18:44:40.815Z,99.99
2018-10-09T18:45:40.791Z,99.99
2018-10-09T18:46:40.772Z,99.99
2018-10-09T18:47:40.757Z,99.99
2018-10-09T18:48:40.753Z,99.99
2018-10-09T18:49:40.746Z,99.99
2018-10-09T18:50:40.730Z,99.99
2018-10-09T18:51:40.968Z,99.99
2018-10-09T18:52:40.771Z,99.99
2018-10-09T18:53:49.383Z,99.99
2018-10-09T18:54:40.651Z,99.99
2018-10-09T18:55:40.617Z,99.99
2018-10-09T18:56:40.598Z,99.99
2018-10-09T18:57:40.603Z,99.99
2018-10-09T18:58:40.642Z,99.99
2018-10-09T18:59:40.550Z,99.99
2018-10-09T19:00:40.534Z,99.99
2018-10-09T19:01:40.515Z,99.99
2018-10-09T19:02:49.896Z,99.99
2018-10-09T19:03:40.495Z,99.99
2018-10-09T19:04:40.492Z,99.99
2018-10-09T19:05:40.448Z,99.99
2018-10-09T19:06:40.429Z,99.99
2018-10-09T19:07:40.420Z,99.99
2018-10-09T19:08:40.413Z,99.99
2018-10-09T19:09:40.380Z,99.99
2018-10-09T19:10:40.388Z,99.99
2018-10-09T19:11:40.342Z,99.99
2018-10-09T19:12:40.325Z,99.99
2018-10-09T19:13:40.323Z,99.99
2018-10-09T19:14:40.294Z,99.99
2018-10-09T19:15:40.278Z,99.99
2018-10-09T19:16:40.261Z,99.99
2018-10-09T19:17:40.243Z,99.99
2018-10-09T19:18:40.238Z,99.99
2018-10-09T19:19:40.209Z,99.99
2018-10-09T19:20:40.190Z,99.99
2018-10-09T19:21:40.173Z,99.99
2018-10-09T19:22:40.158Z,99.99
2018-10-09T19:23:40.163Z,99.99
2018-10-09T19:24:40.119Z,99.99
2018-10-09T19:25:40.106Z,99.99
2018-10-09T19:26:40.091Z,99.99
2018-10-09T19:27:40.068Z,99.99
2018-10-09T19:28:40.241Z,99.99
2018-10-09T19:29:40.035Z,99.99
2018-10-09T19:30:40.019Z,99.99
2018-10-09T19:31:40.003Z,99.99
2018-10-09T19:32:40.086Z,99.99
2018-10-09T19:33:39.968Z,99.99
2018-10-09T19:34:39.960Z,99.99
2018-10-09T19:35:39.927Z,99.99
2018-10-09T19:36:39.913Z,99.99
2018-10-09T19:37:39.899Z,99.99
2018-10-09T19:38:39.879Z,99.99
2018-10-09T19:39:39.956Z,99.99
2018-10-09T19:40:39.845Z,99.99
2018-10-09T19:41:39.826Z,99.99
2018-10-09T19:42:39.808Z,99.99
2018-10-09T19:43:39.789Z,99.99
2018-10-09T19:44:39.783Z,99.99
2018-10-09T19:45:39.753Z,99.99
2018-10-09T19:46:39.736Z,99.99
2018-10-09T19:47:39.724Z,99.99
2018-10-09T19:48:39.702Z,99.99
2018-10-09T19:49:39.700Z,99.99
2018-10-09T19:50:39.734Z,99.99
2018-10-09T19:51:39.683Z,99.99
2018-10-09T19:52:39.629Z,99.99
2018-10-09T19:53:39.611Z,99.99
2018-10-09T19:54:39.594Z,99.99
2018-10-09T19:55:39.590Z,99.99
2018-10-09T19:56:39.563Z,99.99
2018-10-09T19:57:39.549Z,99.99
2018-10-09T19:58:39.527Z,99.99
2018-10-09T19:59:39.524Z,99.99
2018-10-09T20:00:39.509Z,99.99
2018-10-09T20:01:39.472Z,99.99
2018-10-09T20:02:39.454Z,99.99
2018-10-09T20:03:39.435Z,99.99
2018-10-09T20:04:39.415Z,99.99
2018-10-09T20:05:39.403Z,99.99
2018-10-09T20:06:39.401Z,99.99
2018-10-09T20:07:39.367Z,99.99
2018-10-09T20:08:39.346Z,99.99
2018-10-09T20:09:39.330Z,99.99
2018-10-09T20:10:39.309Z,99.99
2018-10-09T20:11:39.330Z,99.99
2018-10-09T20:12:39.275Z,99.99
2018-10-09T20:13:39.257Z,99.99
2018-10-09T20:14:39.241Z,99.99
2018-10-09T20:15:39.224Z,99.99
2018-10-09T20:16:39.215Z,99.99
2018-10-09T20:17:39.186Z,99.99
2018-10-09T20:18:39.168Z,99.99
2018-10-09T20:19:39.148Z,99.99
2018-10-09T20:20:39.130Z,99.99
2018-10-09T20:21:39.127Z,99.99
2018-10-09T20:22:39.099Z,99.99
2018-10-09T20:23:39.081Z,99.99
2018-10-09T20:24:39.098Z,99.99
2018-10-09T20:25:39.045Z,99.99
2018-10-09T20:26:39.141Z,99.99
2018-10-09T20:27:39.007Z,99.99
2018-10-09T20:28:38.987Z,99.99
2018-10-09T20:29:38.972Z,99.99
2018-10-09T20:30:38.956Z,99.99
2018-10-09T20:31:38.935Z,99.99
2018-10-09T20:32:38.933Z,99.99
2018-10-09T20:33:38.897Z,99.99
2018-10-09T20:34:38.880Z,99.99
2018-10-09T20:35:38.860Z,99.99
2018-10-09T20:36:38.847Z,99.99
2018-10-09T20:37:38.843Z,99.99
2018-10-09T20:38:38.809Z,99.99
2018-10-09T20:39:38.792Z,99.99
2018-10-09T20:40:38.773Z,99.99
2018-10-09T20:41:38.800Z,99.99
2018-10-09T20:42:38.749Z,99.99
2018-10-09T20:43:38.718Z,99.99
2018-10-09T20:44:38.699Z,99.99
2018-10-09T20:45:38.679Z,99.99
2018-10-09T20:46:38.662Z,99.99
2018-10-09T20:47:38.662Z,99.99
2018-10-09T20:48:38.624Z,99.99
2018-10-09T20:49:38.613Z,99.99
2018-10-09T20:50:38.590Z,99.99
2018-10-09T20:51:38.574Z,99.99
2018-10-09T20:52:38.572Z,99.99
2018-10-09T20:53:38.538Z,99.99
2018-10-09T20:54:38.514Z,99.99
2018-10-09T20:55:38.502Z,99.99
2018-10-09T20:56:38.479Z,99.99
2018-10-09T20:57:38.476Z,99.99
2018-10-09T20:58:38.445Z,99.99
2018-10-09T20:59:38.485Z,99.99
2018-10-09T21:00:38.406Z,99.99
2018-10-09T21:01:38.409Z,99.99
2018-10-09T21:02:38.394Z,99.99
2018-10-09T21:03:38.349Z,99.99
2018-10-09T21:04:38.335Z,99.99
2018-10-09T21:05:38.364Z,99.99
2018-10-09T21:06:38.294Z,99.99
2018-10-09T21:07:38.306Z,99.99
2018-10-09T21:08:38.259Z,99.99
2018-10-09T21:09:38.241Z,99.99
2018-10-09T21:10:38.220Z,99.99
2018-10-09T21:11:38.203Z,99.99
2018-10-09T21:12:38.185Z,99.99
2018-10-09T21:13:38.185Z,99.99
2018-10-09T21:14:38.149Z,99.99
2018-10-09T21:15:38.130Z,99.99
2018-10-09T21:16:38.111Z,99.99
2018-10-09T21:17:38.144Z,99.99
2018-10-09T21:18:38.095Z,99.99
2018-10-09T21:19:38.056Z,99.99
2018-10-09T21:20:38.038Z,99.99
2018-10-09T21:21:38.021Z,99.99
2018-10-09T21:22:38.006Z,99.99
2018-10-09T21:23:37.996Z,99.99
2018-10-09T21:24:37.966Z,99.99
2018-10-09T21:25:37.951Z,99.99
2018-10-09T21:26:37.931Z,99.99
2018-10-09T21:27:37.911Z,99.99
2018-10-09T21:28:37.915Z,99.99
2018-10-09T21:29:37.939Z,99.99
2018-10-09T21:30:37.852Z,99.99
2018-10-09T21:31:37.833Z,99.99
2018-10-09T21:32:37.820Z,99.99
2018-10-09T21:33:37.803Z,99.99
2018-10-09T21:34:37.799Z,99.99
2018-10-09T21:35:37.766Z,99.99
2018-10-09T21:36:37.902Z,99.99
2018-10-09T21:37:37.726Z,99.99
2018-10-09T21:38:37.703Z,99.99
2018-10-09T21:39:37.715Z,99.99
2018-10-09T21:40:37.669Z,99.99
2018-10-09T21:41:37.653Z,99.99
2018-10-09T21:42:37.629Z,99.99
2018-10-09T21:43:37.612Z,99.99
2018-10-09T21:44:37.593Z,99.99
2018-10-09T21:45:37.589Z,99.99
2018-10-09T21:46:37.555Z,99.99
2018-10-09T21:47:37.535Z,99.99
2018-10-09T21:48:37.516Z,99.99
2018-10-09T21:49:37.500Z,99.99
2018-10-09T21:50:37.498Z,99.99
2018-10-09T21:51:37.460Z,99.99
2018-10-09T21:52:37.442Z,99.99
2018-10-09T21:53:37.421Z,99.99
2018-10-09T21:54:37.405Z,99.99
2018-10-09T21:55:37.398Z,99.99
2018-10-09T21:56:37.367Z,99.99
2018-10-09T21:57:37.348Z,99.99
2018-10-09T21:58:37.329Z,99.99
2018-10-09T21:59:37.311Z,99.99
2018-10-09T22:00:37.312Z,99.99
2018-10-09T22:01:37.273Z,99.99
2018-10-09T22:02:37.254Z,99.99
2018-10-09T22:03:37.268Z,99.99
2018-10-09T22:04:37.216Z,99.99
2018-10-09T22:05:37.195Z,99.99
2018-10-09T22:06:37.190Z,99.99
2018-10-09T22:07:37.161Z,99.99
2018-10-09T22:08:37.141Z,99.99
2018-10-09T22:09:37.120Z,99.99
2018-10-09T22:10:37.102Z,99.99
2018-10-09T22:11:37.099Z,99.99
2018-10-09T22:12:37.064Z,99.99
2018-10-09T22:13:37.046Z,99.99
2018-10-09T22:14:37.028Z,99.99
2018-10-09T22:15:37.006Z,99.99
2018-10-09T22:16:36.985Z,99.99
2018-10-09T22:17:36.981Z,99.99
2018-10-09T22:18:36.951Z,99.99
2018-10-09T22:19:36.932Z,99.99
2018-10-09T22:20:36.910Z,99.99
2018-10-09T22:21:36.892Z,99.99
2018-10-09T22:22:36.887Z,99.99
2018-10-09T22:23:36.856Z,99.99
2018-10-09T22:24:36.834Z,99.99
2018-10-09T22:25:36.817Z,99.99
2018-10-09T22:26:36.797Z,99.99
2018-10-09T22:27:36.792Z,99.99
2018-10-09T22:28:36.758Z,99.99
2018-10-09T22:29:36.739Z,99.99
2018-10-09T22:30:36.720Z,99.99
2018-10-09T22:31:36.700Z,99.99
2018-10-09T22:32:36.705Z,99.99
2018-10-09T22:33:36.663Z,99.99
2018-10-09T22:34:36.645Z,99.99
2018-10-09T22:35:36.624Z,99.99
2018-10-09T22:36:36.607Z,99.99
2018-10-09T22:37:36.587Z,99.99
2018-10-09T22:38:36.643Z,99.99
2018-10-09T22:39:36.544Z,99.99
2018-10-09T22:40:36.525Z,99.99
2018-10-09T22:41:36.508Z,99.99
